Time;durP1;ratioP1;P1;durP2;ratioP2;P2;SDS_P1;SDS_P2;PMS_P1;PMS_P2;Temp;Humidity;BMP_temperature;BMP_pressure;BME280_temperature;BME280_humidity;BME280_pressure;Samples;Min_cycle;Max_cycle;Signal;HPM_P1;HPM_P2
2023/03/16 00:02:24;;;;;;;;;23.50;21.50;;;;;8.34;42.50;98917.31;6191630;27;96356;-57
2023/03/16 00:05:27;;;;;;;;;26.50;25.00;;;;;8.41;42.21;98917.31;6266205;27;96462;-58
2023/03/16 00:08:32;;;;;;;;;24.60;21.60;;;;;8.36;42.35;98906.34;6239570;27;96943;-59
2023/03/16 00:11:35;;;;;;;;;24.75;20.00;;;;;8.26;42.46;98915.63;6217790;27;97406;-57
2023/03/16 00:14:38;;;;;;;;;25.60;24.60;;;;;8.23;42.52;98918.72;6221051;27;96522;-58
2023/03/16 00:17:47;;;;;;;;;29.60;27.60;;;;;8.19;42.71;98913.97;6267605;27;98370;-58
2023/03/16 00:20:51;;;;;;;;;26.50;24.50;;;;;8.13;42.75;98914.78;6263099;27;98371;-57
2023/03/16 00:23:56;;;;;;;;;25.75;23.25;;;;;8.07;43.01;98926.34;6193220;27;96645;-58
2023/03/16 00:26:59;;;;;;;;;25.40;24.00;;;;;8.04;43.19;98932.13;6242706;27;96624;-58
2023/03/16 00:30:04;;;;;;;;;29.60;26.20;;;;;7.94;43.28;98940.59;6231557;27;96590;-58
2023/03/16 00:33:07;;;;;;;;;24.60;22.20;;;;;7.90;43.20;98936.66;6259126;27;96790;-59
2023/03/16 00:36:11;;;;;;;;;25.00;23.60;;;;;7.80;43.38;98939.72;6272191;27;96189;-58
2023/03/16 00:39:15;;;;;;;;;24.67;23.67;;;;;7.74;43.66;98939.69;6201134;27;96531;-60
2023/03/16 00:42:20;;;;;;;;;22.75;21.00;;;;;7.65;43.45;98928.34;6255286;27;98830;-58
2023/03/16 00:45:23;;;;;;;;;24.00;21.33;;;;;7.71;43.76;98946.31;6209395;27;96464;-58
2023/03/16 00:48:27;;;;;;;;;28.25;25.50;;;;;7.67;43.70;98942.34;6251510;27;96747;-57
2023/03/16 00:51:32;;;;;;;;;23.00;21.00;;;;;7.62;43.84;98949.38;6269867;27;96938;-58
2023/03/16 00:54:37;;;;;;;;;24.20;23.00;;;;;7.44;44.41;98944.53;6204312;27;96374;-58
2023/03/16 00:57:40;;;;;;;;;26.00;22.50;;;;;7.42;44.50;98959.19;6257286;27;98871;-58
2023/03/16 01:00:44;;;;;;;;;28.00;25.00;;;;;7.27;44.37;98946.75;6203434;27;97318;-60
2023/03/16 01:03:48;;;;;;;;;23.00;20.80;;;;;7.34;44.39;98955.66;6274538;27;98643;-58
2023/03/16 01:06:51;;;;;;;;;22.00;20.20;;;;;7.31;44.58;98956.06;6248726;27;96414;-58
2023/03/16 01:09:57;;;;;;;;;27.00;25.00;;;;;7.28;44.59;98955.63;6218960;27;97238;-58
2023/03/16 01:13:02;;;;;;;;;25.75;24.25;;;;;7.22;44.96;98965.31;6218919;27;96646;-58
2023/03/16 01:16:06;;;;;;;;;25.20;22.60;;;;;7.13;45.08;98958.44;6255808;27;96653;-60
2023/03/16 01:19:11;;;;;;;;;23.00;23.00;;;;;7.01;45.40;98961.88;6211360;27;96686;-59
2023/03/16 01:22:15;;;;;;;;;27.75;25.75;;;;;6.93;45.48;98966.38;6196735;27;96198;-58
2023/03/16 01:25:20;;;;;;;;;27.00;24.00;;;;;6.88;45.43;98966.13;6263538;27;96835;-58
2023/03/16 01:28:25;;;;;;;;;29.40;26.00;;;;;6.84;45.75;98972.88;6264133;27;98527;-58
2023/03/16 01:31:30;;;;;;;;;24.75;24.00;;;;;6.77;45.78;98974.69;6216741;27;97436;-58
2023/03/16 01:34:34;;;;;;;;;27.75;24.00;;;;;6.70;45.91;98975.66;6234450;27;98623;-58
2023/03/16 01:37:40;;;;;;;;;24.75;22.00;;;;;6.62;45.99;98973.97;6249994;27;96460;-59
2023/03/16 01:40:52;;;;;;;;;26.75;24.75;;;;;6.51;46.38;98979.84;6248119;27;96203;-58
2023/03/16 01:43:57;;;;;;;;;26.00;25.00;;;;;6.46;46.43;98988.47;6283476;27;97581;-58
2023/03/16 01:47:01;;;;;;;;;26.00;22.00;;;;;6.42;46.47;98983.69;6262097;27;96256;-58
2023/03/16 01:50:06;;;;;;;;;29.40;25.60;;;;;6.38;46.89;98982.41;6229671;27;96459;-58
2023/03/16 01:53:13;;;;;;;;;25.00;24.00;;;;;6.35;46.79;98985.50;6261604;27;96977;-60
2023/03/16 01:56:23;;;;;;;;;32.00;29.00;;;;;6.31;47.05;98992.22;6239758;27;96917;-59
2023/03/16 01:59:32;;;;;;;;;24.00;22.00;;;;;6.22;47.17;98991.53;6274286;27;96252;-59
2023/03/16 02:02:38;;;;;;;;;25.00;23.00;;;;;6.22;46.89;98996.88;6261661;27;96489;-60
2023/03/16 02:05:45;;;;;;;;;25.20;23.40;;;;;6.16;47.46;98983.47;6273776;27;97081;-58
2023/03/16 02:08:54;;;;;;;;;25.60;24.00;;;;;6.09;47.20;98992.25;6228568;27;96792;-58
2023/03/16 02:12:00;;;;;;;;;28.60;26.40;;;;;6.05;47.45;98995.50;6246426;27;96584;-59
2023/03/16 02:15:05;;;;;;;;;27.20;26.60;;;;;6.01;47.70;99008.41;6247684;27;98348;-60
2023/03/16 02:18:09;;;;;;;;;24.00;23.00;;;;;5.99;47.43;99007.78;6254234;27;96544;-59
2023/03/16 02:21:24;;;;;;;;;24.40;22.40;;;;;5.92;47.65;99009.53;6209166;27;96642;-59
2023/03/16 02:24:27;;;;;;;;;26.60;24.60;;;;;5.86;47.93;99007.59;6262588;27;96245;-58
2023/03/16 02:27:41;;;;;;;;;24.25;23.25;;;;;5.80;48.06;99016.38;6292180;27;96561;-59
2023/03/16 02:30:46;;;;;;;;;28.50;26.25;;;;;5.77;48.07;99015.91;6256769;27;96389;-59
2023/03/16 02:33:52;;;;;;;;;31.00;28.40;;;;;5.71;48.33;99025.53;6275977;27;97033;-58
2023/03/16 02:36:58;;;;;;;;;30.00;28.75;;;;;5.64;48.65;99033.47;6247736;27;96269;-58
2023/03/16 02:40:20;;;;;;;;;41.60;34.40;;;;;5.61;48.91;99027.66;6250065;27;96822;-58
2023/03/16 02:43:32;;;;;;;;;37.20;33.00;;;;;5.49;49.40;99039.84;6269796;27;96493;-58
2023/03/16 02:47:02;;;;;;;;;41.60;33.60;;;;;5.36;49.68;99020.97;6229279;27;98866;-58
2023/03/16 02:50:06;;;;;;;;;42.20;35.20;;;;;5.42;49.58;99049.63;6264723;27;96250;-58
2023/03/16 02:53:10;;;;;;;;;44.00;35.00;;;;;5.41;49.73;99039.94;6239034;27;96477;-59
2023/03/16 02:56:13;;;;;;;;;49.00;40.00;;;;;5.42;49.65;99046.97;6254533;27;96995;-58
2023/03/16 02:59:17;;;;;;;;;47.80;38.40;;;;;5.42;49.53;99063.00;6247739;27;96675;-59
2023/03/16 03:02:22;;;;;;;;;44.80;36.00;;;;;5.38;50.06;99062.53;6308319;27;96551;-58
2023/03/16 03:05:26;;;;;;;;;45.50;38.00;;;;;5.37;49.92;99062.72;6235444;27;99473;-58
2023/03/16 03:08:31;;;;;;;;;48.60;39.00;;;;;5.34;50.29;99063.91;6245012;27;96669;-59
2023/03/16 03:11:35;;;;;;;;;48.00;40.00;;;;;5.35;50.15;99065.56;6278253;27;96753;-58
2023/03/16 03:14:38;;;;;;;;;48.60;39.00;;;;;5.35;50.44;99060.22;6246208;27;97093;-58
2023/03/16 03:17:43;;;;;;;;;52.60;41.00;;;;;5.27;50.29;99054.97;6254678;27;96547;-58
2023/03/16 03:20:47;;;;;;;;;50.00;39.80;;;;;5.31;50.54;99077.66;6265881;27;96385;-59
2023/03/16 03:23:52;;;;;;;;;49.40;40.00;;;;;5.21;50.67;99074.41;6288159;27;98574;-58
2023/03/16 03:26:55;;;;;;;;;50.80;40.40;;;;;5.18;50.96;99088.16;6243441;27;96878;-58
2023/03/16 03:29:59;;;;;;;;;52.00;42.00;;;;;5.15;51.04;99083.16;6299757;27;96511;-59
2023/03/16 03:33:05;;;;;;;;;54.80;43.40;;;;;5.14;51.14;99098.34;6251826;27;96459;-60
2023/03/16 03:36:10;;;;;;;;;51.50;41.00;;;;;5.10;51.23;99093.56;6250901;27;96437;-60
2023/03/16 03:39:15;;;;;;;;;49.00;40.00;;;;;5.03;51.57;99098.81;6236117;27;96986;-60
2023/03/16 03:42:22;;;;;;;;;52.00;41.00;;;;;5.02;51.14;99107.84;6272469;27;96254;-60
2023/03/16 03:45:26;;;;;;;;;49.00;39.00;;;;;5.04;51.15;99100.47;6213406;27;97928;-60
2023/03/16 03:48:31;;;;;;;;;50.50;40.75;;;;;5.03;51.05;99109.50;6230867;27;98454;-59
2023/03/16 03:51:35;;;;;;;;;53.00;43.00;;;;;5.01;51.35;99114.19;6280079;27;97228;-60
2023/03/16 03:54:42;;;;;;;;;52.00;42.60;;;;;5.00;51.31;99111.69;6231216;27;98006;-60
2023/03/16 03:57:49;;;;;;;;;51.40;41.40;;;;;5.01;51.34;99116.03;6270641;27;96165;-60
2023/03/16 04:00:53;;;;;;;;;50.80;42.00;;;;;5.00;51.35;99111.69;6230490;27;96533;-60
2023/03/16 04:03:58;;;;;;;;;50.00;41.00;;;;;4.97;51.73;99126.25;6272242;27;96828;-60
2023/03/16 04:07:02;;;;;;;;;52.60;43.00;;;;;5.01;51.39;99134.72;6266383;27;96453;-59
2023/03/16 04:10:07;;;;;;;;;55.20;44.20;;;;;4.97;51.50;99117.41;6265027;27;96844;-60
2023/03/16 04:13:14;;;;;;;;;55.00;42.80;;;;;4.98;51.79;99132.44;6249237;27;98239;-60
2023/03/16 04:16:18;;;;;;;;;53.40;44.00;;;;;4.98;51.97;99141.28;6262742;27;96754;-59
2023/03/16 04:19:26;;;;;;;;;57.50;45.50;;;;;4.94;52.57;99142.63;6271020;27;96570;-60
2023/03/16 04:22:30;;;;;;;;;56.40;46.00;;;;;4.90;52.55;99141.31;6249375;27;98450;-60
2023/03/16 04:25:37;;;;;;;;;57.67;46.00;;;;;4.90;52.45;99141.31;6193667;27;97001;-60
2023/03/16 04:28:42;;;;;;;;;56.20;44.80;;;;;4.82;52.72;99151.25;6214888;27;98354;-60
2023/03/16 04:31:49;;;;;;;;;54.75;44.00;;;;;4.63;52.68;99124.03;6241783;27;97586;-60
2023/03/16 04:34:55;;;;;;;;;54.40;43.20;;;;;4.77;52.78;99154.47;6262520;27;96696;-61
2023/03/16 04:38:09;;;;;;;;;55.00;44.40;;;;;4.69;53.02;99155.34;6246558;27;96635;-60
2023/03/16 04:41:20;;;;;;;;;52.20;43.00;;;;;4.65;53.41;99153.19;6257519;27;96939;-60
2023/03/16 04:44:31;;;;;;;;;58.20;46.40;;;;;4.67;52.93;99156.53;6268907;27;96552;-59
2023/03/16 04:47:36;;;;;;;;;57.50;45.50;;;;;4.63;53.35;99156.06;6282326;27;96539;-60
2023/03/16 04:50:42;;;;;;;;;53.00;43.00;;;;;4.64;53.13;99160.38;6247619;27;96559;-60
2023/03/16 04:53:45;;;;;;;;;53.00;42.60;;;;;4.56;53.82;99160.44;6267467;27;96607;-59
2023/03/16 04:56:56;;;;;;;;;54.00;44.20;;;;;4.58;53.54;99161.09;6237566;27;96884;-61
2023/03/16 05:00:32;;;;;;;;;55.80;44.80;;;;;4.56;53.68;99175.63;6237888;27;97362;-60
2023/03/16 05:03:43;;;;;;;;;54.20;43.00;;;;;4.56;53.95;99173.78;6275854;27;98638;-59
2023/03/16 05:06:48;;;;;;;;;54.25;44.00;;;;;4.38;53.80;99149.22;6237077;27;98322;-61
2023/03/16 05:09:55;;;;;;;;;53.00;43.67;;;;;4.59;53.70;99178.78;6267899;27;96677;-59
2023/03/16 05:12:59;;;;;;;;;54.40;44.00;;;;;4.63;54.04;99184.59;6259887;27;96242;-61
2023/03/16 05:16:03;;;;;;;;;56.00;45.00;;;;;4.65;53.58;99182.56;6253838;27;96444;-61
2023/03/16 05:19:11;;;;;;;;;55.00;44.00;;;;;4.69;53.91;99182.03;6222912;27;96938;-61
2023/03/16 05:22:16;;;;;;;;;54.40;43.40;;;;;4.71;53.59;99185.38;6272272;27;96698;-60
2023/03/16 05:25:50;;;;;;;;;53.00;43.40;;;;;4.73;54.00;99188.72;6263011;27;99154;-61
2023/03/16 05:28:57;;;;;;;;;53.40;43.60;;;;;4.77;54.07;99187.34;6270234;27;96371;-60
2023/03/16 05:32:02;;;;;;;;;54.80;43.60;;;;;4.82;53.60;99184.13;6275377;27;96497;-59
2023/03/16 05:35:07;;;;;;;;;50.60;41.00;;;;;4.92;53.62;99190.06;6263469;27;96425;-60
2023/03/16 05:38:12;;;;;;;;;54.25;43.50;;;;;5.03;53.46;99195.00;6259237;27;97794;-60
2023/03/16 05:41:20;;;;;;;;;52.20;42.80;;;;;5.12;53.26;99193.94;6271726;27;97953;-61
2023/03/16 05:44:37;;;;;;;;;52.50;42.50;;;;;5.29;53.20;99197.28;6259902;27;98330;-60
2023/03/16 05:47:54;;;;;;;;;57.20;45.80;;;;;5.35;52.95;99203.75;6297887;27;96614;-59
2023/03/16 05:50:58;;;;;;;;;52.20;42.80;;;;;5.48;52.73;99196.78;6253683;27;97001;-60
2023/03/16 05:54:05;;;;;;;;;55.60;44.80;;;;;5.57;52.49;99194.88;6259914;27;98400;-60
2023/03/16 05:57:17;;;;;;;;;54.50;44.00;;;;;5.70;52.13;99195.06;6268144;27;96431;-60
2023/03/16 06:00:26;;;;;;;;;52.00;42.75;;;;;5.87;51.99;99209.94;6257860;27;96609;-61
2023/03/16 06:03:41;;;;;;;;;53.00;42.40;;;;;5.98;51.70;99208.66;6290322;27;96410;-60
2023/03/16 06:06:48;;;;;;;;;53.00;43.20;;;;;6.01;51.58;99211.78;6271687;27;98314;-61
2023/03/16 06:09:58;;;;;;;;;56.00;45.00;;;;;6.22;51.20;99208.38;6248031;27;98470;-60
2023/03/16 06:13:02;;;;;;;;;52.60;42.00;;;;;6.36;50.97;99220.09;6258982;27;97943;-61
2023/03/16 06:16:07;;;;;;;;;51.50;42.50;;;;;6.42;50.39;99204.13;6239344;27;97279;-60
2023/03/16 06:19:11;;;;;;;;;52.00;42.20;;;;;6.64;50.37;99221.06;6252440;27;96642;-60
2023/03/16 06:22:16;;;;;;;;;56.00;44.00;;;;;6.82;49.96;99220.66;6276136;27;98650;-60
2023/03/16 06:25:22;;;;;;;;;53.00;42.00;;;;;7.00;49.45;99217.53;6277741;27;96502;-60
2023/03/16 06:28:27;;;;;;;;;54.50;43.25;;;;;7.24;49.02;99233.22;6253032;27;96636;-59
2023/03/16 06:31:32;;;;;;;;;49.00;40.20;;;;;7.55;48.19;99236.41;6253624;27;97641;-60
2023/03/16 06:34:37;;;;;;;;;53.67;44.00;;;;;7.84;47.61;99235.41;6275744;27;96540;-61
2023/03/16 06:37:42;;;;;;;;;49.20;41.20;;;;;7.94;46.99;99243.09;6269094;27;96488;-60
2023/03/16 06:41:18;;;;;;;;;49.40;40.40;;;;;8.34;46.63;99252.28;6275798;27;96883;-62
2023/03/16 06:44:22;;;;;;;;;50.40;41.00;;;;;8.47;45.97;99236.22;6266616;27;96919;-60
2023/03/16 06:47:33;;;;;;;;;49.00;39.75;;;;;8.95;45.08;99253.97;6270967;27;96364;-60
2023/03/16 06:50:37;;;;;;;;;50.60;41.00;;;;;9.19;44.35;99252.59;6276405;27;96510;-60
2023/03/16 06:53:41;;;;;;;;;49.00;40.00;;;;;9.60;43.34;99248.91;6248806;27;96850;-60
2023/03/16 06:56:46;;;;;;;;;49.00;41.00;;;;;10.13;42.24;99253.22;6302376;27;96616;-61
2023/03/16 06:59:50;;;;;;;;;44.50;36.00;;;;;10.42;41.34;99260.88;6229475;27;96221;-60
2023/03/16 07:02:53;;;;;;;;;43.50;36.00;;;;;10.69;40.63;99267.03;6251950;27;97322;-60
2023/03/16 07:05:57;;;;;;;;;45.60;39.00;;;;;11.05;40.02;99266.44;6249677;27;96655;-60
2023/03/16 07:09:00;;;;;;;;;44.75;36.00;;;;;11.58;38.75;99261.53;6321804;27;99903;-61
2023/03/16 07:12:07;;;;;;;;;47.00;38.80;;;;;12.01;37.38;99277.84;6252336;27;96726;-60
2023/03/16 07:15:11;;;;;;;;;46.25;38.00;;;;;12.80;36.78;99273.50;6265204;27;96374;-60
2023/03/16 07:18:15;;;;;;;;;42.25;35.00;;;;;13.49;35.33;99280.31;6268374;27;96297;-61
2023/03/16 07:21:19;;;;;;;;;43.50;36.50;;;;;13.96;34.28;99267.69;6251143;27;97171;-62
2023/03/16 07:24:23;;;;;;;;;47.00;37.60;;;;;14.50;33.25;99283.63;6268172;27;97118;-60
2023/03/16 07:27:28;;;;;;;;;49.80;40.00;;;;;14.72;32.58;99264.81;6223943;27;96491;-61
2023/03/16 07:30:33;;;;;;;;;44.60;36.00;;;;;15.25;32.05;99282.75;6254910;27;96963;-60
2023/03/16 07:33:37;;;;;;;;;47.20;37.80;;;;;15.64;31.56;99267.47;6256460;27;96501;-61
2023/03/16 07:36:43;;;;;;;;;47.20;39.20;;;;;16.23;30.92;99279.56;6243073;27;96724;-60
2023/03/16 07:39:46;;;;;;;;;43.60;36.60;;;;;16.59;29.79;99283.69;6271078;27;97429;-61
2023/03/16 07:42:54;;;;;;;;;39.50;35.00;;;;;16.92;29.29;99294.47;6265605;27;96848;-61
2023/03/16 07:46:03;;;;;;;;;45.00;36.60;;;;;17.16;28.71;99290.41;6245986;27;98470;-60
2023/03/16 07:49:08;;;;;;;;;41.00;36.00;;;;;17.57;28.37;99290.88;6264844;27;96670;-61
2023/03/16 07:52:13;;;;;;;;;43.75;36.75;;;;;17.80;27.97;99287.03;6249237;27;96825;-61
2023/03/16 07:55:18;;;;;;;;;43.60;35.60;;;;;18.22;27.59;99289.84;6224357;27;96531;-61
2023/03/16 07:58:24;;;;;;;;;43.00;36.00;;;;;18.57;27.08;99290.94;6267660;27;98325;-61
2023/03/16 08:01:27;;;;;;;;;45.00;37.80;;;;;18.75;26.22;99275.19;6267988;27;96456;-61
2023/03/16 08:04:31;;;;;;;;;42.00;35.00;;;;;19.02;26.04;99286.78;6282275;27;96677;-61
2023/03/16 08:07:35;;;;;;;;;45.00;36.00;;;;;19.19;25.86;99292.06;6259669;27;96578;-61
2023/03/16 08:10:48;;;;;;;;;45.80;36.00;;;;;19.18;25.89;99285.78;6250833;27;96395;-61
2023/03/16 08:13:56;;;;;;;;;39.00;34.00;;;;;19.42;25.98;99292.41;6237281;27;97170;-61
2023/03/16 08:17:07;;;;;;;;;41.25;34.00;;;;;19.31;25.61;99295.38;6242635;27;96278;-61
2023/03/16 08:20:13;;;;;;;;;40.60;35.00;;;;;19.76;25.24;99302.91;6292003;27;96350;-61
2023/03/16 08:23:18;;;;;;;;;31.60;30.00;;;;;20.10;24.16;99290.34;6267406;27;97816;-61
2023/03/16 08:26:22;;;;;;;;;31.00;29.00;;;;;20.61;23.29;99288.41;6201098;27;96853;-60
2023/03/16 08:29:33;;;;;;;;;29.00;25.50;;;;;21.09;22.90;99305.25;6240662;27;96735;-61
2023/03/16 08:32:39;;;;;;;;;28.00;25.00;;;;;21.22;22.85;99301.09;6258082;27;96596;-61
2023/03/16 08:35:44;;;;;;;;;19.80;18.40;;;;;21.54;22.17;99302.34;6221370;27;96423;-61
2023/03/16 08:38:48;;;;;;;;;23.80;22.20;;;;;21.88;21.61;99307.06;6319792;27;96321;-61
2023/03/16 08:42:14;;;;;;;;;28.40;27.40;;;;;20.86;22.68;99309.44;6250006;27;96881;-61
2023/03/16 08:45:23;;;;;;;;;25.00;23.50;;;;;21.24;21.94;99307.13;6256457;27;97514;-61
2023/03/16 08:48:27;;;;;;;;;28.00;27.00;;;;;22.05;22.43;99312.97;6263802;27;96798;-61
2023/03/16 08:51:31;;;;;;;;;26.00;24.00;;;;;21.06;22.17;99300.34;6292218;27;96271;-61
2023/03/16 08:54:34;;;;;;;;;22.80;20.40;;;;;19.87;22.60;99305.38;6272038;27;97176;-61
2023/03/16 08:57:38;;;;;;;;;29.50;26.00;;;;;20.35;23.03;99307.88;6280057;27;96728;-60
2023/03/16 09:00:43;;;;;;;;;24.80;23.00;;;;;20.38;22.78;99308.16;6267716;27;96871;-61
2023/03/16 09:03:50;;;;;;;;;25.00;22.00;;;;;20.51;22.91;99310.34;6223516;27;97191;-61
2023/03/16 09:06:53;;;;;;;;;28.40;26.00;;;;;20.79;23.29;99311.66;6239913;27;96227;-61
2023/03/16 09:10:14;;;;;;;;;32.75;28.75;;;;;19.85;23.75;99315.78;6182074;28;96456;-61
2023/03/16 09:13:18;;;;;;;;;26.60;24.40;;;;;19.11;24.07;99309.78;6235485;27;96408;-60
2023/03/16 09:16:26;;;;;;;;;25.00;23.00;;;;;19.86;23.49;99306.47;6306332;27;97814;-61
2023/03/16 09:19:30;;;;;;;;;26.40;24.00;;;;;20.64;22.69;99306.19;6282014;27;96655;-61
2023/03/16 09:22:52;;;;;;;;;19.40;17.40;;;;;19.33;23.63;99312.34;6275462;27;96620;-61
2023/03/16 09:25:58;;;;;;;;;19.75;17.50;;;;;18.41;24.43;99315.66;6246452;27;96683;-60
2023/03/16 09:29:02;;;;;;;;;22.00;21.00;;;;;18.73;24.79;99312.88;6224998;27;98223;-61
2023/03/16 09:32:07;;;;;;;;;28.00;24.60;;;;;19.54;23.92;99316.00;6187326;27;96395;-60
2023/03/16 09:35:10;;;;;;;;;24.00;22.00;;;;;19.69;22.97;99319.59;6242973;27;96639;-61
2023/03/16 09:38:16;;;;;;;;;22.60;21.00;;;;;18.85;24.11;99306.13;6189936;27;96472;-60
2023/03/16 09:41:37;;;;;;;;;24.00;23.00;;;;;19.88;23.58;99309.78;6214742;27;96958;-60
2023/03/16 09:44:50;;;;;;;;;23.40;20.60;;;;;20.41;21.77;99298.56;6258790;27;96317;-60
2023/03/16 09:48:01;;;;;;;;;20.00;18.60;;;;;19.82;22.43;99308.13;6242000;27;96339;-61
2023/03/16 09:51:10;;;;;;;;;21.20;19.00;;;;;19.29;22.75;99311.25;6282491;27;96246;-62
2023/03/16 09:54:26;;;;;;;;;17.80;17.80;;;;;19.03;23.20;99311.13;6252063;27;96324;-61
2023/03/16 09:57:33;;;;;;;;;20.00;19.00;;;;;18.07;23.84;99309.66;6218208;27;97074;-60
2023/03/16 10:00:41;;;;;;;;;16.25;15.50;;;;;18.58;23.78;99313.59;6274209;27;96524;-61
2023/03/16 10:04:01;;;;;;;;;16.80;16.00;;;;;18.88;23.50;99307.50;6250924;27;96353;-61
2023/03/16 10:07:18;;;;;;;;;17.00;15.75;;;;;19.53;22.86;99304.22;6265034;27;96889;-62
2023/03/16 10:10:41;;;;;;;;;21.40;17.40;;;;;19.02;23.57;99317.69;6229989;27;96083;-61
2023/03/16 10:13:51;;;;;;;;;18.60;18.00;;;;;18.85;22.82;99324.44;6295917;27;96456;-61
2023/03/16 10:16:59;;;;;;;;;16.60;15.60;;;;;18.51;23.36;99318.44;6188619;28;97009;-61
2023/03/16 10:20:07;;;;;;;;;17.00;17.00;;;;;18.59;22.30;99324.28;6297620;27;96373;-61
2023/03/16 10:23:18;;;;;;;;;15.40;14.40;;;;;19.38;22.00;99320.56;6227835;27;96697;-62
2023/03/16 10:26:25;;;;;;;;;14.40;14.00;;;;;19.15;22.33;99323.75;6261709;27;96713;-61
2023/03/16 10:29:31;;;;;;;;;13.00;11.00;;;;;19.19;22.03;99314.75;6298004;27;96559;-61
2023/03/16 10:32:35;;;;;;;;;15.00;13.00;;;;;20.08;21.01;99324.56;6210589;27;96901;-61
2023/03/16 10:35:47;;;;;;;;;15.00;13.20;;;;;19.48;21.43;99333.47;6297489;27;96956;-61
2023/03/16 10:38:54;;;;;;;;;12.00;11.00;;;;;18.96;21.71;99332.41;6212304;27;96539;-61
2023/03/16 10:41:59;;;;;;;;;12.80;12.80;;;;;18.30;22.32;99333.03;6305608;27;96583;-61
2023/03/16 10:45:02;;;;;;;;;13.00;12.00;;;;;17.65;23.08;99342.25;6255847;27;96239;-61
2023/03/16 10:48:07;;;;;;;;;16.00;13.00;;;;;16.92;24.04;99331.78;6274003;27;96523;-61
2023/03/16 10:51:15;;;;;;;;;14.00;11.80;;;;;16.44;24.77;99342.25;6252273;27;97811;-61
2023/03/16 10:54:28;;;;;;;;;12.00;11.80;;;;;16.06;24.77;99349.50;6268631;27;98994;-61
2023/03/16 10:57:33;;;;;;;;;12.00;11.25;;;;;16.68;24.16;99333.91;6295907;27;96334;-61
2023/03/16 11:00:42;;;;;;;;;13.80;12.40;;;;;17.60;23.94;99334.00;6251800;27;97044;-61
2023/03/16 11:03:50;;;;;;;;;10.60;10.00;;;;;17.50;22.36;99336.59;6248778;27;96348;-61
2023/03/16 11:06:56;;;;;;;;;12.50;10.00;;;;;17.78;22.48;99325.50;6262239;27;96401;-61
2023/03/16 11:10:00;;;;;;;;;11.00;10.00;;;;;18.01;22.52;99327.88;6278931;27;97581;-61
2023/03/16 11:13:09;;;;;;;;;10.40;9.40;;;;;18.90;21.00;99322.56;6201234;27;97152;-61
2023/03/16 11:16:23;;;;;;;;;12.00;11.00;;;;;19.22;21.08;99319.69;6242988;27;97016;-61
2023/03/16 11:19:29;;;;;;;;;9.80;9.80;;;;;18.99;20.62;99320.94;6253574;27;96359;-61
2023/03/16 11:22:34;;;;;;;;;11.25;10.00;;;;;19.59;19.96;99329.69;6198975;27;96316;-61
2023/03/16 11:25:45;;;;;;;;;9.00;8.00;;;;;20.15;19.64;99325.09;6229600;27;96280;-60
2023/03/16 11:28:58;;;;;;;;;9.40;8.40;;;;;20.59;19.04;99318.00;6202853;27;96474;-61
2023/03/16 11:32:06;;;;;;;;;10.60;9.40;;;;;21.09;18.87;99324.44;6232977;27;96538;-62
2023/03/16 11:35:15;;;;;;;;;10.20;10.00;;;;;21.35;18.99;99326.03;6239366;27;98526;-61
2023/03/16 11:38:21;;;;;;;;;14.00;13.00;;;;;20.19;19.98;99328.94;6267790;27;96439;-64
2023/03/16 11:41:36;;;;;;;;;15.00;14.00;;;;;19.25;20.93;99329.28;6223364;27;96525;-66
2023/03/16 11:44:50;;;;;;;;;15.00;14.60;;;;;19.22;21.33;99327.06;6280289;27;96434;-66
2023/03/16 11:48:09;;;;;;;;;13.60;12.60;;;;;19.44;20.45;99330.47;6275338;27;96846;-66
2023/03/16 11:51:29;;;;;;;;;13.00;12.25;;;;;19.86;20.06;99325.63;6270112;27;97518;-65
2023/03/16 11:54:47;;;;;;;;;15.00;14.60;;;;;20.25;19.97;99325.94;6262517;27;97137;-65
2023/03/16 11:58:03;;;;;;;;;15.00;13.00;;;;;20.91;19.31;99316.84;6203715;27;96347;-65
2023/03/16 12:01:17;;;;;;;;;14.00;13.00;;;;;21.34;19.69;99324.38;6275099;27;97372;-65
2023/03/16 12:04:43;;;;;;;;;15.20;14.20;;;;;20.38;20.88;99321.03;6261090;27;97275;-66
2023/03/16 12:08:00;;;;;;;;;14.00;13.60;;;;;19.36;21.59;99336.41;6273412;27;96891;-65
2023/03/16 12:11:07;;;;;;;;;14.00;14.00;;;;;18.40;22.47;99331.22;6274873;27;96566;-65
2023/03/16 12:14:17;;;;;;;;;15.75;14.75;;;;;17.87;22.94;99328.56;6264550;27;96993;-64
2023/03/16 12:17:25;;;;;;;;;15.00;14.00;;;;;16.92;23.55;99329.06;6272627;27;96546;-65
2023/03/16 12:20:34;;;;;;;;;12.00;11.00;;;;;17.66;23.25;99330.25;6206111;27;96739;-66
2023/03/16 12:23:41;;;;;;;;;12.80;10.00;;;;;18.33;21.89;99314.22;6207400;27;96302;-65
2023/03/16 12:26:48;;;;;;;;;14.00;13.50;;;;;18.99;21.56;99317.41;6267701;27;96441;-66
2023/03/16 12:30:01;;;;;;;;;14.00;12.40;;;;;18.22;22.62;99326.16;6252440;27;96700;-65
2023/03/16 12:33:13;;;;;;;;;9.80;9.00;;;;;17.47;23.74;99335.22;6210415;27;98042;-66
2023/03/16 12:36:46;;;;;;;;;10.00;9.00;;;;;16.76;24.76;99331.56;6249960;27;99543;-66
2023/03/16 12:40:06;;;;;;;;;13.40;12.00;;;;;16.22;25.18;99326.91;6204326;27;96992;-64
2023/03/16 12:43:28;;;;;;;;;10.60;10.60;;;;;16.28;25.20;99323.19;6215012;27;97648;-66
2023/03/16 12:46:41;;;;;;;;;8.75;8.00;;;;;16.98;24.20;99311.72;6205271;28;97017;-65
2023/03/16 12:49:45;;;;;;;;;12.25;10.00;;;;;17.09;23.42;99308.06;6255810;27;96674;-66
2023/03/16 12:52:50;;;;;;;;;11.00;10.00;;;;;16.85;22.98;99310.19;6255141;27;97348;-64
2023/03/16 12:55:55;;;;;;;;;11.40;9.40;;;;;17.05;23.63;99313.19;6254649;27;97727;-66
2023/03/16 12:59:02;;;;;;;;;6.00;6.00;;;;;17.03;21.50;99312.59;6262316;27;96716;-66
2023/03/16 13:02:16;;;;;;;;;5.00;4.60;;;;;17.70;21.27;99304.94;6205811;27;96113;-66
2023/03/16 13:05:31;;;;;;;;;8.40;8.00;;;;;17.81;21.46;99308.59;6272916;27;96419;-66
2023/03/16 13:08:42;;;;;;;;;8.80;8.20;;;;;17.49;22.17;99304.97;6200449;27;97505;-63
2023/03/16 13:11:50;;;;;;;;;8.60;7.60;;;;;17.19;22.00;99314.44;6252549;27;96340;-66
2023/03/16 13:14:55;;;;;;;;;8.40;8.00;;;;;16.71;23.07;99308.91;6269270;27;96703;-65
2023/03/16 13:18:21;;;;;;;;;11.00;10.00;;;;;16.31;23.42;99318.09;6202408;27;96679;-66
2023/03/16 13:21:36;;;;;;;;;9.00;9.00;;;;;15.90;24.53;99326.63;6270341;27;96363;-64
2023/03/16 13:24:40;;;;;;;;;11.40;10.40;;;;;15.60;25.75;99329.63;6199837;27;96125;-66
2023/03/16 13:27:46;;;;;;;;;8.00;8.00;;;;;15.14;26.34;99333.31;6200397;27;96327;-65
2023/03/16 13:30:50;;;;;;;;;10.00;9.00;;;;;14.82;25.29;99327.47;6267829;27;97305;-66
2023/03/16 13:33:58;;;;;;;;;9.50;8.50;;;;;15.12;25.51;99328.13;6204348;27;96431;-65
2023/03/16 13:37:02;;;;;;;;;11.00;10.00;;;;;15.56;24.94;99326.59;6262355;27;96457;-65
2023/03/16 13:40:19;;;;;;;;;11.40;9.80;;;;;15.87;24.26;99324.44;6270257;27;96849;-65
2023/03/16 13:43:24;;;;;;;;;12.00;10.00;;;;;16.43;24.59;99324.25;6205453;27;97558;-65
2023/03/16 13:46:30;;;;;;;;;11.00;10.00;;;;;16.88;24.06;99321.41;6250656;27;97168;-66
2023/03/16 13:49:34;;;;;;;;;7.00;7.00;;;;;17.16;23.22;99322.28;6269284;27;96616;-65
2023/03/16 13:52:37;;;;;;;;;10.60;9.60;;;;;17.57;22.57;99313.50;6276444;27;96375;-65
2023/03/16 13:55:44;;;;;;;;;6.00;5.20;;;;;17.82;21.64;99321.16;6198287;27;96937;-65
2023/03/16 13:58:49;;;;;;;;;7.50;7.00;;;;;18.13;21.37;99323.06;6202994;27;96913;-65
2023/03/16 14:01:58;;;;;;;;;7.00;6.00;;;;;18.21;20.90;99319.03;6209259;27;96740;-64
2023/03/16 14:05:10;;;;;;;;;7.00;6.00;;;;;18.43;20.95;99318.91;6198185;27;96337;-65
2023/03/16 14:08:18;;;;;;;;;7.00;6.00;;;;;18.38;20.31;99322.44;6210146;27;96267;-64
2023/03/16 14:11:21;;;;;;;;;5.60;5.60;;;;;18.19;20.07;99332.94;6276906;27;96521;-65
2023/03/16 14:14:28;;;;;;;;;6.40;6.00;;;;;18.22;20.21;99331.63;6198239;28;96198;-64
2023/03/16 14:17:32;;;;;;;;;5.00;5.00;;;;;18.14;20.08;99323.88;6209304;27;96625;-63
2023/03/16 14:20:36;;;;;;;;;7.00;7.00;;;;;18.17;20.67;99328.84;6239767;27;98588;-64
2023/03/16 14:23:46;;;;;;;;;6.00;6.00;;;;;18.02;20.55;99329.53;6264706;27;98407;-65
2023/03/16 14:26:49;;;;;;;;;6.00;5.00;;;;;17.93;20.90;99330.25;6246214;27;96940;-65
2023/03/16 14:29:59;;;;;;;;;7.00;7.00;;;;;17.66;21.20;99328.34;6196853;27;96848;-64